Time;durP1;ratioP1;P1;durP2;ratioP2;P2;SDS_P1;SDS_P2;PMS_P1;PMS_P2;Temp;Humidity;BMP_temperature;BMP_pressure;BME280_temperature;BME280_humidity;BME280_pressure;Samples;Min_cycle;Max_cycle;Signal;HPM_P1;HPM_P2
2022/10/10 00:01:44;;;;;;;3.97;1.65;;;9.30;99.90;;;;;;4830625;29;20196;-93
2022/10/10 00:04:10;;;;;;;5.65;1.77;;;9.30;99.90;;;;;;4830514;29;20197;-94
2022/10/10 00:06:35;;;;;;;6.53;1.77;;;9.30;99.90;;;;;;4833605;29;20272;-94
2022/10/10 00:09:03;;;;;;;5.00;1.50;;;9.30;99.90;;;;;;4836409;29;20200;-90
2022/10/10 00:11:29;;;;;;;6.28;1.90;;;9.30;99.90;;;;;;4836044;29;20181;-95
2022/10/10 00:13:55;;;;;;;7.35;2.00;;;9.30;99.90;;;;;;4837530;29;20195;-94
2022/10/10 00:16:21;;;;;;;3.58;1.70;;;9.20;99.90;;;;;;4852216;29;20170;-92
2022/10/10 00:18:47;;;;;;;2.10;1.50;;;9.20;99.90;;;;;;4833537;29;20216;-92
2022/10/10 00:21:13;;;;;;;5.15;1.80;;;9.20;99.90;;;;;;4838388;29;20200;-95
2022/10/10 00:23:41;;;;;;;5.05;1.60;;;9.20;99.90;;;;;;4850652;29;20193;-96
2022/10/10 00:26:07;;;;;;;5.43;1.60;;;9.20;99.90;;;;;;4851481;29;20613;-92
2022/10/10 00:28:33;;;;;;;3.97;1.70;;;9.20;99.90;;;;;;4854456;29;20189;-96
2022/10/10 00:30:58;;;;;;;8.60;1.85;;;9.20;99.90;;;;;;4844260;29;20645;-94
2022/10/10 00:33:24;;;;;;;4.82;1.52;;;9.20;99.90;;;;;;4837280;29;20310;-93
2022/10/10 00:35:50;;;;;;;5.27;1.57;;;9.20;99.90;;;;;;4834500;29;20185;-95
2022/10/10 00:38:18;;;;;;;6.70;1.70;;;9.20;99.90;;;;;;4834553;29;20193;-95
2022/10/10 00:40:47;;;;;;;8.23;2.03;;;9.20;99.90;;;;;;4833381;29;20233;-94
2022/10/10 00:43:15;;;;;;;5.00;1.60;;;9.10;99.90;;;;;;4851943;29;20189;-93
2022/10/10 00:45:44;;;;;;;3.55;1.63;;;9.10;99.90;;;;;;4853162;29;20633;-94
2022/10/10 00:48:32;;;;;;;8.43;1.90;;;9.10;99.90;;;;;;4851674;29;20262;-94
2022/10/10 00:51:11;;;;;;;5.87;1.97;;;9.10;99.90;;;;;;4847491;29;20235;-93
2022/10/10 00:53:58;;;;;;;6.37;1.93;;;9.10;99.90;;;;;;4836121;29;20182;-95
2022/10/10 00:56:29;;;;;;;4.40;2.00;;;9.10;99.90;;;;;;4834096;29;20181;-96
2022/10/10 00:58:59;;;;;;;3.63;1.70;;;9.00;99.90;;;;;;4849964;29;20273;-94
2022/10/10 01:01:25;;;;;;;4.78;1.73;;;9.00;99.90;;;;;;4852547;29;20217;-95
2022/10/10 01:03:59;;;;;;;5.72;1.92;;;9.00;99.90;;;;;;4853418;29;20189;-96
2022/10/10 01:06:25;;;;;;;5.13;1.77;;;9.00;99.90;;;;;;4855222;29;20245;-95
2022/10/10 01:08:51;;;;;;;8.45;1.75;;;8.90;99.90;;;;;;4855486;29;20194;-96
2022/10/10 01:11:41;;;;;;;6.37;1.97;;;8.90;99.90;;;;;;4841135;29;20189;-93
2022/10/10 01:14:41;;;;;;;3.55;1.70;;;8.90;99.90;;;;;;4839101;29;20168;-96
2022/10/10 01:17:32;;;;;;;5.63;1.80;;;8.80;99.90;;;;;;4876350;23;20597;-95
2022/10/10 01:20:22;;;;;;;7.60;1.97;;;8.80;99.90;;;;;;4818389;29;20661;-86
2022/10/10 01:23:25;;;;;;;5.88;1.80;;;8.80;99.90;;;;;;4834174;29;20693;-93
2022/10/10 01:25:59;;;;;;;4.17;1.70;;;8.90;99.90;;;;;;4831243;29;20192;-91
2022/10/10 01:28:55;;;;;;;4.17;1.80;;;8.80;99.90;;;;;;4830665;29;20234;-90
2022/10/10 01:31:24;;;;;;;10.93;2.00;;;8.80;99.90;;;;;;4829191;29;20190;-94
2022/10/10 01:34:22;;;;;;;7.93;1.90;;;8.80;99.90;;;;;;4833224;29;20194;-88
2022/10/10 01:37:08;;;;;;;7.17;2.10;;;8.80;99.90;;;;;;4831939;29;20181;-96
2022/10/10 01:39:58;;;;;;;6.07;1.90;;;8.70;99.90;;;;;;4830506;29;20220;-87
2022/10/10 01:42:29;;;;;;;4.10;1.90;;;8.70;99.90;;;;;;4855699;24;20694;-92
2022/10/10 01:44:57;;;;;;;5.47;1.80;;;8.70;99.90;;;;;;4809351;29;20528;-91
2022/10/10 01:47:23;;;;;;;6.67;1.97;;;8.60;99.90;;;;;;4825613;29;20166;-92
2022/10/10 01:49:54;;;;;;;6.20;1.90;;;8.60;99.90;;;;;;4809101;29;20702;-91
2022/10/10 01:52:38;;;;;;;5.30;1.80;;;8.50;99.90;;;;;;4808832;29;20671;-92
2022/10/10 01:55:27;;;;;;;10.40;1.63;;;8.50;99.90;;;;;;4817712;29;20718;-92
2022/10/10 01:58:28;;;;;;;4.50;1.67;;;8.50;99.90;;;;;;4824270;29;20666;-93
2022/10/10 02:01:12;;;;;;;11.30;2.30;;;8.50;99.90;;;;;;4824341;29;20296;-91
2022/10/10 02:03:44;;;;;;;3.67;1.73;;;8.50;99.90;;;;;;4824070;29;20186;-91
2022/10/10 02:06:20;;;;;;;7.20;2.00;;;8.50;99.90;;;;;;4824223;29;20658;-92
2022/10/10 02:09:10;;;;;;;7.15;1.80;;;8.40;99.90;;;;;;4812560;29;20193;-90
2022/10/10 02:11:38;;;;;;;5.18;1.80;;;8.40;99.90;;;;;;4809417;29;20174;-92
2022/10/10 02:14:22;;;;;;;3.80;1.70;;;8.40;99.90;;;;;;4808915;29;20561;-92
2022/10/10 02:16:54;;;;;;;5.65;2.15;;;8.40;99.90;;;;;;4808636;29;20548;-92
2022/10/10 02:19:22;;;;;;;4.67;2.20;;;8.40;99.90;;;;;;4808497;29;20253;-91
2022/10/10 02:21:50;;;;;;;6.00;2.20;;;8.40;99.90;;;;;;4816749;29;20227;-93
2022/10/10 02:24:18;;;;;;;9.03;1.87;;;8.40;99.90;;;;;;4823857;29;20171;-91
2022/10/10 02:26:46;;;;;;;8.67;1.90;;;8.40;99.90;;;;;;4823673;29;20553;-91
2022/10/10 02:29:18;;;;;;;7.67;2.23;;;8.40;99.90;;;;;;4823321;29;20175;-91
2022/10/10 02:31:57;;;;;;;3.80;1.87;;;8.40;99.90;;;;;;4823628;29;20182;-91
2022/10/10 02:34:32;;;;;;;4.23;2.00;;;8.40;99.90;;;;;;4819493;29;20194;-92
2022/10/10 02:37:04;;;;;;;5.27;2.37;;;8.40;99.90;;;;;;4808440;29;20205;-91
2022/10/10 02:39:34;;;;;;;6.90;2.20;;;8.40;99.90;;;;;;4808353;29;20250;-92
2022/10/10 02:42:05;;;;;;;5.53;1.92;;;8.40;99.90;;;;;;4808758;29;20174;-93
2022/10/10 02:44:33;;;;;;;7.63;2.27;;;8.40;99.90;;;;;;4808370;29;20229;-92
2022/10/10 02:47:00;;;;;;;9.77;2.27;;;8.40;99.90;;;;;;4808973;29;20220;-92
2022/10/10 02:49:32;;;;;;;4.57;2.30;;;8.40;99.90;;;;;;4808273;29;20536;-92
2022/10/10 02:51:58;;;;;;;10.00;2.17;;;8.40;99.90;;;;;;4824189;29;20197;-90
2022/10/10 02:54:24;;;;;;;9.30;2.10;;;8.40;99.90;;;;;;4808554;29;20185;-91
2022/10/10 02:56:50;;;;;;;4.83;2.00;;;8.40;99.90;;;;;;4807927;29;20206;-92
2022/10/10 02:59:16;;;;;;;5.90;2.20;;;8.40;99.90;;;;;;4807881;29;20210;-93
2022/10/10 03:01:42;;;;;;;5.23;2.27;;;8.40;99.90;;;;;;4808327;29;20178;-91
2022/10/10 03:04:08;;;;;;;8.73;2.03;;;8.30;99.90;;;;;;4808465;29;20703;-92
2022/10/10 03:06:34;;;;;;;7.03;2.13;;;8.30;99.90;;;;;;4808640;29;20296;-91
2022/10/10 03:08:59;;;;;;;7.03;2.00;;;8.30;99.90;;;;;;4807879;29;20254;-92
2022/10/10 03:11:25;;;;;;;3.90;1.90;;;8.30;99.90;;;;;;4808259;29;20178;-91
2022/10/10 03:13:51;;;;;;;6.47;1.90;;;8.30;99.90;;;;;;4808363;29;20693;-91
2022/10/10 03:16:17;;;;;;;6.67;2.10;;;8.30;99.90;;;;;;4808119;29;20828;-92
2022/10/10 03:18:42;;;;;;;7.87;1.93;;;8.20;99.90;;;;;;4807727;29;20202;-93
2022/10/10 03:21:08;;;;;;;6.25;2.42;;;8.20;99.90;;;;;;4810044;29;20197;-92
2022/10/10 03:23:34;;;;;;;4.60;2.00;;;8.30;99.90;;;;;;4819949;29;20686;-92
2022/10/10 03:26:01;;;;;;;5.40;2.17;;;8.30;99.90;;;;;;4807602;29;20709;-91
2022/10/10 03:28:27;;;;;;;4.90;2.00;;;8.30;99.90;;;;;;4807899;29;20186;-91
2022/10/10 03:30:52;;;;;;;5.00;1.87;;;8.30;99.90;;;;;;4807965;29;20617;-92
2022/10/10 03:33:18;;;;;;;6.00;1.93;;;8.20;99.90;;;;;;4807587;29;20193;-92
2022/10/10 03:35:44;;;;;;;4.60;2.20;;;8.20;99.90;;;;;;4822562;29;20270;-91
2022/10/10 03:38:12;;;;;;;6.17;2.00;;;8.20;99.90;;;;;;4822897;29;20555;-92
2022/10/10 03:40:40;;;;;;;8.20;2.57;;;8.20;99.90;;;;;;4825041;29;20185;-91
2022/10/10 03:43:06;;;;;;;8.40;2.10;;;8.20;99.90;;;;;;4826506;29;20632;-94
2022/10/10 03:45:32;;;;;;;7.40;1.90;;;8.20;99.90;;;;;;4826498;29;20229;-93
2022/10/10 03:47:58;;;;;;;3.00;1.63;;;8.20;99.90;;;;;;4826278;29;20639;-91
2022/10/10 03:50:24;;;;;;;7.27;2.40;;;8.20;99.90;;;;;;4826247;29;20190;-92
2022/10/10 03:52:49;;;;;;;4.73;1.80;;;8.10;99.90;;;;;;4826215;29;20197;-92
2022/10/10 03:55:15;;;;;;;9.07;2.13;;;8.10;99.90;;;;;;4826086;29;20241;-92
2022/10/10 03:57:41;;;;;;;5.57;2.03;;;8.10;99.90;;;;;;4826194;29;20291;-93
2022/10/10 04:00:07;;;;;;;10.33;1.90;;;8.10;99.90;;;;;;4820585;29;20214;-92
2022/10/10 04:02:33;;;;;;;4.83;1.97;;;8.10;99.90;;;;;;4792999;29;20217;-92
2022/10/10 04:04:59;;;;;;;6.13;1.77;;;8.10;99.90;;;;;;4793048;29;20237;-93
2022/10/10 04:07:25;;;;;;;7.03;1.80;;;8.00;99.90;;;;;;4793063;29;20185;-92
2022/10/10 04:09:51;;;;;;;4.27;1.97;;;8.00;99.90;;;;;;4793025;29;20205;-92
2022/10/10 04:12:17;;;;;;;3.90;2.20;;;8.00;99.90;;;;;;4793334;29;20644;-93
2022/10/10 04:14:42;;;;;;;5.00;2.00;;;8.00;99.90;;;;;;4814144;29;20225;-92
2022/10/10 04:17:08;;;;;;;3.63;1.77;;;8.00;99.90;;;;;;4825994;29;20216;-93
2022/10/10 04:19:34;;;;;;;5.07;2.00;;;8.00;99.90;;;;;;4825922;29;20206;-92
2022/10/10 04:22:00;;;;;;;5.90;1.90;;;8.00;99.90;;;;;;4828725;29;20557;-91
2022/10/10 04:24:25;;;;;;;4.33;1.97;;;7.90;99.90;;;;;;4828771;29;20176;-92
2022/10/10 04:26:51;;;;;;;7.80;2.00;;;7.80;99.90;;;;;;4829080;29;20289;-90
2022/10/10 04:29:17;;;;;;;4.30;1.60;;;7.80;99.90;;;;;;4828871;29;20201;-92
2022/10/10 04:31:43;;;;;;;4.97;2.00;;;7.80;99.90;;;;;;4828549;29;20634;-92
2022/10/10 04:34:08;;;;;;;6.00;2.10;;;7.80;99.90;;;;;;4828419;29;20220;-94
2022/10/10 04:36:34;;;;;;;6.20;2.00;;;7.60;99.90;;;;;;4818973;29;20271;-92
2022/10/10 04:39:00;;;;;;;7.87;2.00;;;7.60;99.90;;;;;;4827138;29;20647;-92
2022/10/10 04:41:25;;;;;;;4.70;1.83;;;7.60;99.90;;;;;;4810425;29;20189;-92
2022/10/10 04:43:51;;;;;;;5.93;1.80;;;7.50;99.90;;;;;;4807649;29;20384;-93
2022/10/10 04:46:17;;;;;;;4.03;2.20;;;7.50;99.90;;;;;;4807430;29;20659;-91
2022/10/10 04:48:42;;;;;;;4.73;2.00;;;7.50;99.90;;;;;;4807608;29;20274;-92
2022/10/10 04:51:08;;;;;;;5.27;2.20;;;7.30;99.90;;;;;;4807299;29;20186;-91
2022/10/10 04:53:34;;;;;;;3.47;1.67;;;7.20;99.90;;;;;;4822206;29;20670;-92
2022/10/10 04:56:00;;;;;;;3.43;1.90;;;7.10;99.90;;;;;;4825505;29;20240;-92
2022/10/10 04:58:25;;;;;;;3.70;1.97;;;7.20;99.90;;;;;;4825575;29;20178;-91
2022/10/10 05:00:53;;;;;;;4.17;1.80;;;7.20;99.90;;;;;;4825846;29;20177;-92
2022/10/10 05:03:19;;;;;;;2.93;1.60;;;7.20;99.90;;;;;;4823479;29;20387;-90
2022/10/10 05:05:45;;;;;;;3.40;1.50;;;7.10;99.90;;;;;;4807033;29;20259;-91
2022/10/10 05:08:10;;;;;;;3.97;2.07;;;7.10;99.90;;;;;;4807145;29;20289;-92
2022/10/10 05:10:38;;;;;;;5.40;1.67;;;7.00;99.90;;;;;;4807062;29;20178;-93
2022/10/10 05:13:05;;;;;;;6.50;2.03;;;7.00;99.90;;;;;;4807216;29;20171;-92
2022/10/10 05:15:34;;;;;;;3.80;1.90;;;7.00;99.90;;;;;;4806982;29;20213;-92
2022/10/10 05:18:01;;;;;;;4.50;1.87;;;7.10;99.90;;;;;;4806878;29;20171;-90
2022/10/10 05:20:28;;;;;;;5.40;2.00;;;7.00;99.90;;;;;;4806381;29;20267;-90
2022/10/10 05:22:54;;;;;;;3.90;1.70;;;7.00;99.90;;;;;;4806861;29;20183;-92
2022/10/10 05:25:19;;;;;;;3.97;1.87;;;7.00;99.90;;;;;;4819895;29;20624;-91
2022/10/10 05:27:45;;;;;;;4.83;1.77;;;6.90;99.90;;;;;;4824959;29;20190;-91
2022/10/10 05:30:11;;;;;;;8.10;2.03;;;6.90;99.90;;;;;;4824916;29;20192;-92
2022/10/10 05:32:37;;;;;;;5.20;2.27;;;6.90;99.90;;;;;;4825973;29;20170;-92
2022/10/10 05:35:03;;;;;;;4.33;2.00;;;6.90;99.90;;;;;;4824797;29;20216;-92
2022/10/10 05:37:30;;;;;;;6.03;2.43;;;6.80;99.90;;;;;;4816862;29;20203;-92
2022/10/10 05:39:56;;;;;;;4.10;2.10;;;6.80;99.90;;;;;;4816708;29;20245;-91
2022/10/10 05:42:22;;;;;;;2.77;1.50;;;6.70;99.90;;;;;;4825366;29;20651;-92
2022/10/10 05:44:47;;;;;;;4.87;1.90;;;6.70;99.90;;;;;;4827454;29;20181;-91
2022/10/10 05:47:13;;;;;;;4.23;2.00;;;6.70;99.90;;;;;;4827346;29;20212;-92
2022/10/10 05:49:40;;;;;;;7.27;2.13;;;6.60;99.90;;;;;;4827596;29;20705;-93
2022/10/10 05:52:07;;;;;;;6.33;2.27;;;6.70;99.90;;;;;;4844181;29;20210;-92
2022/10/10 05:54:32;;;;;;;5.80;2.07;;;6.80;99.90;;;;;;4827687;29;20224;-92
2022/10/10 05:56:58;;;;;;;4.67;2.27;;;6.90;99.90;;;;;;4824029;29;20206;-91
2022/10/10 05:59:24;;;;;;;3.27;1.97;;;6.80;99.90;;;;;;4824237;29;20210;-91
2022/10/10 06:01:50;;;;;;;4.27;2.33;;;6.90;99.90;;;;;;4824173;29;20254;-92
2022/10/10 06:04:17;;;;;;;3.93;2.50;;;7.00;99.90;;;;;;4823371;29;20573;-92
2022/10/10 06:06:43;;;;;;;6.13;2.47;;;7.00;99.90;;;;;;4824117;29;20213;-92
2022/10/10 06:09:10;;;;;;;4.70;2.20;;;7.00;99.90;;;;;;4824263;29;20182;-91
2022/10/10 06:11:36;;;;;;;4.47;2.43;;;7.10;99.90;;;;;;4824160;29;20216;-92
2022/10/10 06:14:02;;;;;;;4.27;2.23;;;7.10;99.90;;;;;;4823944;29;20250;-92
2022/10/10 06:16:27;;;;;;;8.50;2.73;;;7.10;99.90;;;;;;4823803;29;20205;-92
2022/10/10 06:18:55;;;;;;;3.20;2.37;;;7.10;99.90;;;;;;4823959;29;20209;-92
2022/10/10 06:21:22;;;;;;;4.73;2.53;;;7.20;99.90;;;;;;4823767;29;20186;-92
2022/10/10 06:23:48;;;;;;;5.90;2.40;;;7.20;99.90;;;;;;4823689;29;20273;-91
2022/10/10 06:26:14;;;;;;;5.53;2.40;;;7.30;99.90;;;;;;4824658;29;20331;-92
2022/10/10 06:28:40;;;;;;;4.27;2.43;;;7.30;99.90;;;;;;4824159;29;20655;-92
2022/10/10 06:31:07;;;;;;;5.53;2.53;;;7.30;99.90;;;;;;4814457;29;20751;-92
2022/10/10 06:33:36;;;;;;;4.63;2.30;;;7.30;99.90;;;;;;4809876;29;20194;-90
2022/10/10 06:36:05;;;;;;;5.13;2.33;;;7.20;99.90;;;;;;4819780;29;20222;-92
2022/10/10 06:38:31;;;;;;;5.53;2.40;;;7.20;99.90;;;;;;4823453;29;20194;-92
2022/10/10 06:41:03;;;;;;;2.17;1.83;;;7.30;99.90;;;;;;4808110;29;20181;-90
2022/10/10 06:43:30;;;;;;;3.77;2.30;;;7.30;99.90;;;;;;4803865;29;20230;-91
2022/10/10 06:45:56;;;;;;;3.70;2.57;;;7.30;99.90;;;;;;4803882;29;20679;-91
2022/10/10 06:48:23;;;;;;;6.27;2.80;;;7.40;99.90;;;;;;4804894;29;20183;-92
2022/10/10 06:50:56;;;;;;;11.90;2.60;;;7.50;99.90;;;;;;4804994;29;20663;-92
2022/10/10 06:53:22;;;;;;;6.57;2.90;;;7.60;99.90;;;;;;4811705;29;20221;-91
2022/10/10 06:55:48;;;;;;;6.40;2.80;;;7.70;99.90;;;;;;4822627;29;20252;-92
2022/10/10 06:58:15;;;;;;;6.60;3.10;;;7.80;99.90;;;;;;4823648;29;20182;-90
2022/10/10 07:00:51;;;;;;;7.17;2.57;;;7.90;99.90;;;;;;4812827;29;20195;-91
2022/10/10 07:03:17;;;;;;;7.63;2.87;;;8.00;99.90;;;;;;4804832;29;20189;-92
2022/10/10 07:05:43;;;;;;;5.00;2.70;;;8.10;99.90;;;;;;4819900;29;20218;-91
2022/10/10 07:08:09;;;;;;;4.40;2.90;;;8.10;99.90;;;;;;4804784;29;20199;-93
2022/10/10 07:10:35;;;;;;;6.50;2.73;;;8.20;99.90;;;;;;4820412;29;20566;-92
2022/10/10 07:13:01;;;;;;;4.43;2.53;;;8.30;99.90;;;;;;4804818;29;20262;-91
2022/10/10 07:15:27;;;;;;;4.30;2.00;;;8.40;99.90;;;;;;4804614;29;20305;-91
2022/10/10 07:17:57;;;;;;;5.83;2.60;;;8.50;99.90;;;;;;4805029;29;20183;-91
2022/10/10 07:20:23;;;;;;;6.77;2.80;;;8.50;99.90;;;;;;4804847;29;20206;-90
2022/10/10 07:22:49;;;;;;;7.83;3.00;;;8.60;99.90;;;;;;4804783;29;20179;-91
2022/10/10 07:25:15;;;;;;;5.07;2.80;;;8.70;99.90;;;;;;4804551;29;20225;-91
2022/10/10 07:27:41;;;;;;;4.93;2.30;;;8.70;99.90;;;;;;4818704;29;20185;-92
2022/10/10 07:30:07;;;;;;;4.43;2.25;;;8.80;99.90;;;;;;4823169;29;20189;-92
2022/10/10 07:32:33;;;;;;;5.32;2.30;;;8.90;99.90;;;;;;4824312;29;20181;-92
2022/10/10 07:34:59;;;;;;;5.07;2.40;;;9.00;99.90;;;;;;4822943;29;20594;-91
2022/10/10 07:37:24;;;;;;;6.47;2.40;;;9.10;99.90;;;;;;4822895;29;20242;-90
2022/10/10 07:39:54;;;;;;;4.65;2.03;;;9.20;99.90;;;;;;4822585;29;20310;-92
2022/10/10 07:42:20;;;;;;;5.90;2.28;;;9.20;99.90;;;;;;4824093;29;20166;-92
2022/10/10 07:44:45;;;;;;;6.72;2.25;;;9.40;99.90;;;;;;4825592;29;20181;-92
2022/10/10 07:47:11;;;;;;;9.55;2.35;;;9.50;99.90;;;;;;4825851;29;20180;-91
2022/10/10 07:49:37;;;;;;;6.82;2.20;;;9.60;99.90;;;;;;4842075;29;20174;-91
2022/10/10 07:52:03;;;;;;;3.78;2.28;;;9.60;99.90;;;;;;4808147;29;20249;-91
2022/10/10 07:54:30;;;;;;;5.25;2.22;;;9.60;99.90;;;;;;4807450;29;20182;-92
2022/10/10 07:56:56;;;;;;;7.72;2.17;;;9.60;99.90;;;;;;4807426;29;20297;-92
2022/10/10 07:59:23;;;;;;;3.83;1.92;;;9.60;99.90;;;;;;4807111;29;20254;-91
2022/10/10 08:01:49;;;;;;;4.63;2.85;;;9.50;99.90;;;;;;4807242;29;20174;-91
2022/10/10 08:04:14;;;;;;;6.97;2.10;;;9.50;99.90;;;;;;4807285;29;20179;-92
2022/10/10 08:06:40;;;;;;;5.78;2.20;;;9.50;99.90;;;;;;4823566;29;20212;-92
2022/10/10 08:09:06;;;;;;;2.65;1.83;;;9.50;99.90;;;;;;4807460;29;20236;-92
2022/10/10 08:11:33;;;;;;;3.83;2.10;;;9.60;99.90;;;;;;4807233;29;20186;-92
2022/10/10 08:13:58;;;;;;;5.75;2.45;;;9.70;99.90;;;;;;4807474;29;20190;-92
2022/10/10 08:16:25;;;;;;;6.85;2.25;;;9.90;99.90;;;;;;4806963;29;20297;-91
2022/10/10 08:18:50;;;;;;;4.72;2.00;;;10.00;99.90;;;;;;4807663;29;20244;-92
2022/10/10 08:21:18;;;;;;;5.28;2.42;;;10.20;99.90;;;;;;4807260;29;20197;-90
2022/10/10 08:23:46;;;;;;;5.95;2.45;;;10.30;99.90;;;;;;4807302;29;20624;-92
2022/10/10 08:26:14;;;;;;;4.65;2.33;;;10.50;99.90;;;;;;4807012;29;20222;-93
2022/10/10 08:28:41;;;;;;;3.95;2.30;;;10.60;99.90;;;;;;4810679;29;20231;-91
2022/10/10 08:31:08;;;;;;;4.50;2.35;;;10.70;99.90;;;;;;4810134;29;20175;-93
2022/10/10 08:33:35;;;;;;;5.38;2.30;;;10.80;99.90;;;;;;4809871;29;20181;-92
2022/10/10 08:36:10;;;;;;;5.57;2.30;;;10.90;99.90;;;;;;4809939;29;20205;-91
2022/10/10 08:38:35;;;;;;;4.63;1.80;;;10.90;99.90;;;;;;4810291;29;20181;-90
2022/10/10 08:41:26;;;;;;;3.15;1.90;;;11.10;99.90;;;;;;4810197;29;20222;-91
2022/10/10 08:44:27;;;;;;;4.60;1.83;;;11.10;99.90;;;;;;4810031;29;20222;-91
2022/10/10 08:47:16;;;;;;;4.20;1.75;;;11.20;99.90;;;;;;4808779;29;20214;-91
2022/10/10 08:50:02;;;;;;;4.38;1.70;;;11.40;99.90;;;;;;4809702;29;20202;-92
2022/10/10 08:52:38;;;;;;;3.85;1.42;;;11.60;99.90;;;;;;4810299;29;20192;-93
2022/10/10 08:55:16;;;;;;;5.18;1.42;;;11.60;99.90;;;;;;4810189;29;20660;-93
2022/10/10 08:57:54;;;;;;;4.53;1.50;;;11.80;99.90;;;;;;4809445;29;20250;-91
2022/10/10 09:00:27;;;;;;;2.75;1.50;;;11.90;99.90;;;;;;4816020;29;20433;-93
2022/10/10 09:03:00;;;;;;;6.22;1.80;;;11.90;99.90;;;;;;4825429;29;20201;-90
2022/10/10 09:05:55;;;;;;;2.30;1.42;;;12.10;99.90;;;;;;4825169;29;20221;-93
2022/10/10 09:08:30;;;;;;;2.50;1.70;;;12.20;99.90;;;;;;4825210;29;20251;-92
2022/10/10 09:11:05;;;;;;;4.72;2.00;;;12.30;99.90;;;;;;4825510;29;20173;-91
2022/10/10 09:13:58;;;;;;;5.60;1.98;;;12.30;99.90;;;;;;4825058;29;20298;-92
2022/10/10 09:16:36;;;;;;;3.50;1.90;;;12.50;99.90;;;;;;4824361;29;20609;-92
2022/10/10 09:19:23;;;;;;;4.45;2.08;;;12.50;99.90;;;;;;4815237;29;20217;-93
2022/10/10 09:21:54;;;;;;;4.70;2.28;;;12.40;99.90;;;;;;4828442;29;20589;-93
2022/10/10 09:24:27;;;;;;;7.88;2.60;;;12.50;99.90;;;;;;4828239;29;20177;-92
2022/10/10 09:27:05;;;;;;;5.82;2.20;;;12.50;99.90;;;;;;4827705;29;20224;-92
2022/10/10 09:29:43;;;;;;;7.20;2.33;;;12.50;99.90;;;;;;4828101;29;20181;-91
2022/10/10 09:32:12;;;;;;;4.97;2.60;;;12.70;99.90;;;;;;4828541;29;20261;-94
2022/10/10 09:34:48;;;;;;;9.48;2.60;;;12.80;99.90;;;;;;4828086;29;20287;-93
2022/10/10 09:37:23;;;;;;;15.52;2.75;;;12.80;99.90;;;;;;4828039;29;20709;-91
2022/10/10 09:40:07;;;;;;;7.75;2.72;;;12.90;99.90;;;;;;4827599;29;20284;-93
2022/10/10 09:42:38;;;;;;;5.05;2.47;;;12.90;99.90;;;;;;4810179;29;20185;-94
2022/10/10 09:45:47;;;;;;;9.63;2.72;;;13.00;99.90;;;;;;4809456;29;20213;-92
2022/10/10 09:48:13;;;;;;;8.07;2.67;;;13.10;99.90;;;;;;4809584;29;20178;-94
2022/10/10 09:50:39;;;;;;;4.63;2.38;;;13.10;99.90;;;;;;4809584;29;20665;-92
2022/10/10 09:53:05;;;;;;;3.92;2.15;;;13.20;99.90;;;;;;4810024;29;20205;-93
2022/10/10 09:55:40;;;;;;;4.82;2.33;;;13.20;99.90;;;;;;4812798;29;20209;-93
2022/10/10 09:58:36;;;;;;;3.95;2.33;;;13.30;99.90;;;;;;4827945;29;20649;-93
2022/10/10 10:01:22;;;;;;;6.22;2.85;;;13.40;99.90;;;;;;4824461;29;20201;-94
2022/10/10 10:04:10;;;;;;;6.38;2.38;;;13.50;99.90;;;;;;4824474;29;20178;-93
2022/10/10 10:06:41;;;;;;;8.43;2.95;;;13.60;99.90;;;;;;4824872;29;20245;-94
2022/10/10 10:09:17;;;;;;;6.75;2.50;;;13.80;99.90;;;;;;4824493;29;20186;-92
2022/10/10 10:11:45;;;;;;;5.38;2.22;;;13.90;99.90;;;;;;4824552;29;20643;-94
2022/10/10 10:14:37;;;;;;;8.27;2.53;;;13.90;99.90;;;;;;4823915;29;20178;-94
2022/10/10 10:17:11;;;;;;;4.18;2.30;;;14.00;99.90;;;;;;4824586;29;20178;-93
2022/10/10 10:19:43;;;;;;;8.68;2.13;;;14.20;99.90;;;;;;4824248;29;20247;-93
2022/10/10 10:22:33;;;;;;;4.85;1.83;;;14.40;99.90;;;;;;4824508;29;20177;-92
2022/10/10 10:25:19;;;;;;;6.40;2.20;;;14.60;99.90;;;;;;4824217;29;20209;-93
2022/10/10 10:27:45;;;;;;;4.93;2.33;;;14.60;99.90;;;;;;4823840;29;20647;-94
2022/10/10 10:30:25;;;;;;;4.00;2.15;;;14.70;99.90;;;;;;4823952;29;20182;-92
2022/10/10 10:33:06;;;;;;;4.68;1.75;;;14.70;99.90;;;;;;4827239;29;20253;-92
2022/10/10 10:35:52;;;;;;;4.05;2.00;;;14.80;99.90;;;;;;4827087;29;20212;-93
2022/10/10 10:38:49;;;;;;;6.03;2.15;;;14.90;99.90;;;;;;4826920;29;20631;-94
2022/10/10 10:41:47;;;;;;;6.63;2.08;;;15.00;99.90;;;;;;4826918;29;20216;-92
2022/10/10 10:44:28;;;;;;;10.52;1.67;;;15.10;99.90;;;;;;4816291;29;20923;-93
2022/10/10 10:47:06;;;;;;;4.05;1.52;;;15.20;99.90;;;;;;4823825;29;20209;-93
2022/10/10 10:50:06;;;;;;;3.17;1.60;;;15.20;99.90;;;;;;4823340;29;20189;-93
2022/10/10 10:52:52;;;;;;;2.78;1.52;;;15.30;99.90;;;;;;4805708;29;20655;-93
2022/10/10 10:55:26;;;;;;;5.07;1.70;;;15.40;99.90;;;;;;4826545;29;20239;-91
2022/10/10 10:58:10;;;;;;;3.90;1.77;;;15.50;99.90;;;;;;4827203;29;20276;-95
2022/10/10 11:00:51;;;;;;;4.60;1.95;;;15.70;99.90;;;;;;4826425;29;20208;-92
2022/10/10 11:03:20;;;;;;;5.45;1.67;;;15.80;99.90;;;;;;4826632;29;20178;-91
2022/10/10 11:06:14;;;;;;;3.60;1.63;;;15.80;99.90;;;;;;4826298;29;20213;-92
2022/10/10 11:09:06;;;;;;;2.72;1.50;;;16.00;99.90;;;;;;4826591;29;20182;-93
2022/10/10 11:11:42;;;;;;;4.63;1.65;;;16.10;99.90;;;;;;4826413;29;20264;-92
2022/10/10 11:14:33;;;;;;;4.88;1.83;;;16.10;99.90;;;;;;4826599;29;20177;-93
2022/10/10 11:17:40;;;;;;;4.70;1.60;;;16.10;99.90;;;;;;4826279;29;20557;-92
2022/10/10 11:20:06;;;;;;;3.78;1.50;;;16.20;99.90;;;;;;4789194;29;20300;-92
2022/10/10 11:22:40;;;;;;;3.53;1.67;;;16.30;99.90;;;;;;4822758;29;20277;-93
2022/10/10 11:25:13;;;;;;;2.78;1.40;;;16.30;99.90;;;;;;4825959;29;20216;-94
2022/10/10 11:27:47;;;;;;;3.83;1.95;;;16.30;99.90;;;;;;4826340;29;20184;-91
2022/10/10 11:30:16;;;;;;;3.80;1.63;;;16.50;99.90;;;;;;4818341;29;20206;-93
2022/10/10 11:32:56;;;;;;;3.92;1.60;;;16.50;99.90;;;;;;4821189;29;20194;-92
2022/10/10 11:35:46;;;;;;;4.05;1.70;;;16.60;99.90;;;;;;4826582;29;20201;-94
2022/10/10 11:38:43;;;;;;;4.95;1.70;;;16.60;99.90;;;;;;4823080;29;20190;-92
2022/10/10 11:41:23;;;;;;;3.35;1.55;;;16.80;99.90;;;;;;4807803;29;20186;-95
2022/10/10 11:44:00;;;;;;;2.00;1.23;;;16.80;99.90;;;;;;4807966;29;20695;-92
2022/10/10 11:46:49;;;;;;;4.03;1.85;;;16.90;99.90;;;;;;4807895;29;20215;-92
2022/10/10 11:49:33;;;;;;;5.28;1.63;;;16.90;99.90;;;;;;4791246;29;20290;-93
2022/10/10 11:52:27;;;;;;;3.88;1.60;;;16.90;99.90;;;;;;4816395;29;20198;-93
2022/10/10 11:55:25;;;;;;;4.90;1.67;;;17.00;99.90;;;;;;4822946;29;20225;-92
2022/10/10 11:57:59;;;;;;;5.38;1.48;;;17.00;99.90;;;;;;4823629;29;20192;-92
2022/10/10 12:00:28;;;;;;;3.90;1.63;;;17.20;99.90;;;;;;4823300;29;20278;-92
2022/10/10 12:02:56;;;;;;;3.60;1.48;;;17.10;99.90;;;;;;4826735;29;20221;-93
2022/10/10 12:05:23;;;;;;;6.22;1.58;;;17.20;99.90;;;;;;4826407;29;20202;-92
2022/10/10 12:08:36;;;;;;;6.93;1.55;;;17.40;99.90;;;;;;4826961;29;20182;-92
2022/10/10 12:11:23;;;;;;;6.93;1.70;;;17.60;99.90;;;;;;4774680;30;20219;-92
2022/10/10 12:13:58;;;;;;;6.18;1.48;;;17.70;99.90;;;;;;4774331;30;20664;-93
2022/10/10 12:16:27;;;;;;;11.73;1.40;;;17.90;99.90;;;;;;4812004;29;20627;-92
2022/10/10 12:18:59;;;;;;;4.05;1.52;;;17.80;99.90;;;;;;4825903;29;20200;-93
2022/10/10 12:21:28;;;;;;;3.75;1.75;;;17.90;99.90;;;;;;4825889;29;20178;-93
2022/10/10 12:24:09;;;;;;;2.95;1.40;;;17.90;99.90;;;;;;4826124;29;20253;-93
2022/10/10 12:26:58;;;;;;;7.00;1.90;;;17.80;99.90;;;;;;4826207;29;20233;-93
2022/10/10 12:29:47;;;;;;;3.80;1.58;;;17.80;99.90;;;;;;4818585;29;20198;-91
2022/10/10 12:32:13;;;;;;;5.65;1.70;;;17.80;99.90;;;;;;4793252;29;20200;-94
2022/10/10 12:34:42;;;;;;;3.80;1.35;;;17.80;99.90;;;;;;4808074;29;20174;-94
2022/10/10 12:37:36;;;;;;;5.03;1.77;;;17.90;99.90;;;;;;4792899;29;20266;-92
2022/10/10 12:40:04;;;;;;;4.20;1.65;;;18.00;99.90;;;;;;4791539;29;20218;-94
2022/10/10 12:43:02;;;;;;;7.13;1.83;;;18.00;99.90;;;;;;4807394;29;20266;-93
2022/10/10 12:45:29;;;;;;;4.57;1.55;;;18.00;99.90;;;;;;4791617;29;20299;-93
2022/10/10 12:48:18;;;;;;;6.70;1.90;;;18.00;99.90;;;;;;4806695;29;20640;-94
2022/10/10 12:50:56;;;;;;;6.95;1.70;;;18.10;99.90;;;;;;4791518;29;20183;-93
2022/10/10 12:53:26;;;;;;;5.40;1.65;;;18.00;99.60;;;;;;4791522;29;20179;-94
2022/10/10 12:56:00;;;;;;;5.05;1.80;;;18.00;99.90;;;;;;4791616;29;20202;-93
2022/10/10 12:58:29;;;;;;;10.00;1.67;;;18.00;99.90;;;;;;4791906;29;20674;-93
2022/10/10 13:00:57;;;;;;;6.00;1.85;;;18.10;99.80;;;;;;4812855;29;20222;-95
2022/10/10 13:03:44;;;;;;;5.75;1.48;;;18.20;99.60;;;;;;4807649;29;20214;-93
2022/10/10 13:06:32;;;;;;;7.03;1.45;;;18.20;99.90;;;;;;4791221;29;20694;-92
2022/10/10 13:09:00;;;;;;;5.20;1.77;;;18.40;99.90;;;;;;4821607;29;20628;-93
2022/10/10 13:11:26;;;;;;;5.28;1.70;;;18.50;99.30;;;;;;4791567;29;20647;-93
2022/10/10 13:13:55;;;;;;;10.55;1.90;;;18.40;99.20;;;;;;4791593;29;20194;-93
2022/10/10 13:16:24;;;;;;;6.38;1.50;;;18.40;99.70;;;;;;4791673;29;20297;-94
2022/10/10 13:18:56;;;;;;;6.15;1.55;;;18.40;99.00;;;;;;4791619;29;20211;-93
2022/10/10 13:21:34;;;;;;;5.93;1.50;;;18.40;99.60;;;;;;4791655;29;20182;-93